Carolina Beach, North Carolina
Current Conditions -  °F | °C
As of 3:35 AM on Monday 22 Dec 2014 (Local Time) from KSUT Reporting Station
Overcast Overcast  
Wind Chill: 43°   Ceiling: 500
Heat Index: 48°   Visibility: 7mi
Dew Point: 47°   Wind: 9mph
Humidity: 96%   Direction: 30°NNE
Pressure: 30.06"   Gusts: NA
Location:  34.04°N, 77.89°W
Report Text: KSUT 220835Z AUTO 03008KT 7SM OVC005 09/08 A3006 RMK AO2 T00870081
Loading
Personal Weather Stations






























Interactive Weather Map New forecast layout! Learn more

10-Day Weather Forecast

Advertisements
Track Severe Weather on mobile